Time;durP1;ratioP1;P1;durP2;ratioP2;P2;SDS_P1;SDS_P2;PMS_P1;PMS_P2;Temp;Humidity;BMP_temperature;BMP_pressure;BME280_temperature;BME280_humidity;BME280_pressure;Samples;Min_cycle;Max_cycle;Signal;HPM_P1;HPM_P2
2022/08/30 00:01:27;;;;;;;14.07;3.63;;;;;;;21.10;45.10;101190.41;5038181;28;20059;-66
2022/08/30 00:03:57;;;;;;;;;;;;;;;21.32;44.41;101194.41;5041282;28;20056;-67
2022/08/30 00:06:25;;;;;;;9.80;3.30;;;;;;;21.19;44.59;101208.59;5075397;28;19925;-67
2022/08/30 00:08:54;;;;;;;14.18;3.17;;;;;;;20.95;45.04;101203.34;5056120;28;20060;-67
2022/08/30 00:11:24;;;;;;;14.70;3.85;;;;;;;21.01;44.85;101204.66;5037753;28;20057;-67
2022/08/30 00:13:54;;;;;;;14.10;3.75;;;;;;;20.97;45.41;101205.75;5056158;28;20064;-66
2022/08/30 00:16:22;;;;;;;12.80;3.83;;;;;;;20.89;45.19;101203.97;5038188;28;20059;-67
2022/08/30 00:18:50;;;;;;;7.47;3.10;;;;;;;20.92;45.34;101187.25;5056480;28;20420;-66
2022/08/30 00:21:18;;;;;;;9.85;3.38;;;;;;;20.95;45.15;101197.72;5055386;28;20068;-68
2022/08/30 00:23:45;;;;;;;13.02;2.92;;;;;;;21.07;45.02;101199.56;5067141;28;20048;-68
2022/08/30 00:26:12;;;;;;;10.27;3.53;;;;;;;21.05;44.67;101194.34;5075536;28;20048;-68
2022/08/30 00:28:40;;;;;;;7.00;3.20;;;;;;;21.12;45.02;101196.47;5075697;28;20056;-68
2022/08/30 00:31:07;;;;;;;10.90;3.42;;;;;;;21.07;44.65;101193.97;5067512;28;20049;-69
2022/08/30 00:33:35;;;;;;;10.55;3.40;;;;;;;20.97;44.82;101184.13;5037503;28;20052;-67
2022/08/30 00:36:02;;;;;;;13.85;2.90;;;;;;;20.89;45.08;101178.78;5037039;28;20380;-67
2022/08/30 00:38:29;;;;;;;11.45;3.58;;;;;;;20.91;44.67;101190.44;5037990;28;20056;-67
2022/08/30 00:40:58;;;;;;;9.60;3.38;;;;;;;20.68;45.47;101193.19;5054820;28;20048;-66
2022/08/30 00:43:29;;;;;;;6.88;3.15;;;;;;;20.76;45.54;101188.53;5037845;28;20045;-66
2022/08/30 00:45:56;;;;;;;8.98;3.58;;;;;;;20.70;45.52;101196.44;5036075;28;20447;-66
2022/08/30 00:48:24;;;;;;;13.00;4.03;;;;;;;20.74;45.26;101188.91;5055396;28;20076;-67
2022/08/30 00:50:55;;;;;;;11.93;3.20;;;;;;;20.61;45.70;101186.63;5054481;28;20064;-66
2022/08/30 00:53:26;;;;;;;11.10;3.17;;;;;;;20.46;46.37;101187.53;5037741;28;20045;-67
2022/08/30 00:55:54;;;;;;;12.82;3.47;;;;;;;20.68;45.88;101183.97;5020679;28;20056;-67
2022/08/30 00:58:24;;;;;;;8.82;3.35;;;;;;;20.84;45.27;101182.72;5055342;28;20049;-66
2022/08/30 01:00:54;;;;;;;11.20;3.47;;;;;;;20.61;45.83;101186.63;5036888;28;20060;-67
2022/08/30 01:03:21;;;;;;;8.43;3.58;;;;;;;20.71;45.67;101197.25;5037584;28;20052;-66
2022/08/30 01:05:50;;;;;;;13.57;3.25;;;;;;;20.57;46.03;101186.59;5060383;28;20057;-67
2022/08/30 01:08:21;;;;;;;9.40;3.53;;;;;;;20.53;45.97;101194.09;5037104;28;20060;-67
2022/08/30 01:10:49;;;;;;;9.13;3.50;;;;;;;20.61;45.73;101195.03;5036565;28;20053;-67
2022/08/30 01:13:16;;;;;;;11.23;3.67;;;;;;;20.44;45.96;101198.28;5036541;28;20102;-66
2022/08/30 01:15:45;;;;;;;7.93;3.28;;;;;;;20.54;46.51;101187.31;5054302;28;20423;-67
2022/08/30 01:18:16;;;;;;;11.88;3.83;;;;;;;20.59;45.76;101194.63;5055153;28;20048;-67
2022/08/30 01:21:03;;;;;;;8.52;3.30;;;;;;;20.58;46.12;101199.38;5037462;28;20076;-67
2022/08/30 01:23:31;;;;;;;8.45;3.67;;;;;;;20.44;46.21;101198.28;5064045;28;20044;-66
2022/08/30 01:25:59;;;;;;;15.15;3.22;;;;;;;20.43;46.30;101205.88;5074205;28;20060;-66
2022/08/30 01:28:27;;;;;;;9.13;3.45;;;;;;;20.52;46.36;101208.47;5040240;28;20511;-67
2022/08/30 01:30:54;;;;;;;12.00;3.45;;;;;;;20.56;46.38;101207.34;5051503;28;20059;-68
2022/08/30 01:33:23;;;;;;;10.15;3.50;;;;;;;20.27;46.62;101209.91;5054019;28;20052;-67
2022/08/30 01:35:57;;;;;;;9.02;3.50;;;;;;;20.25;46.99;101210.28;5054274;28;20049;-67
2022/08/30 01:38:31;;;;;;;9.50;3.80;;;;;;;20.23;47.11;101218.22;5053029;28;20072;-67
2022/08/30 01:41:18;;;;;;;8.85;2.95;;;;;;;20.26;46.86;101211.88;5036705;28;20060;-65
2022/08/30 01:43:46;;;;;;;12.23;3.97;;;;;;;20.42;46.99;101207.03;5036708;28;20064;-66
2022/08/30 01:46:15;;;;;;;11.88;4.00;;;;;;;20.52;46.96;101216.84;5062888;28;20057;-68
2022/08/30 01:48:45;;;;;;;9.80;3.80;;;;;;;20.52;46.71;101217.66;5052214;28;20049;-66
2022/08/30 01:51:20;;;;;;;9.82;3.75;;;;;;;20.62;46.25;101216.25;5053572;28;20057;-67
2022/08/30 01:53:48;;;;;;;10.18;3.47;;;;;;;20.68;46.57;101218.38;5054281;28;20060;-66
2022/08/30 01:56:15;;;;;;;11.32;3.60;;;;;;;20.64;46.27;101219.50;5054016;28;20057;-66
2022/08/30 01:58:43;;;;;;;9.68;3.88;;;;;;;20.49;46.23;101215.59;5054689;28;20525;-66
2022/08/30 02:01:12;;;;;;;12.27;4.00;;;;;;;20.27;47.35;101212.69;5053806;28;20167;-67
2022/08/30 02:03:41;;;;;;;10.40;3.70;;;;;;;20.19;48.06;101202.56;5022016;28;20053;-67
2022/08/30 02:06:13;;;;;;;9.23;3.63;;;;;;;20.26;47.84;101208.31;5058034;28;20059;-68
2022/08/30 02:08:41;;;;;;;12.90;3.97;;;;;;;20.35;48.00;101211.66;5039849;28;20059;-68
2022/08/30 02:11:08;;;;;;;10.95;3.63;;;;;;;20.34;47.87;101210.06;5057420;28;20052;-68
2022/08/30 02:13:36;;;;;;;9.63;3.83;;;;;;;20.11;47.72;101213.53;5058580;28;20053;-68
2022/08/30 02:16:06;;;;;;;12.38;4.05;;;;;;;20.06;47.57;101213.03;5011676;28;20079;-68
2022/08/30 02:18:35;;;;;;;9.73;3.72;;;;;;;20.13;47.69;101221.56;5040429;28;20088;-68
2022/08/30 02:21:02;;;;;;;12.27;3.70;;;;;;;19.95;48.13;101225.94;5039996;28;20056;-67
2022/08/30 02:23:30;;;;;;;10.95;4.15;;;;;;;20.03;48.28;101217.34;5067490;28;20055;-67
2022/08/30 02:25:58;;;;;;;11.73;3.60;;;;;;;20.20;47.68;101220.94;5053398;28;20049;-68
2022/08/30 02:28:25;;;;;;;10.68;3.80;;;;;;;20.28;47.16;101214.31;5040232;28;20509;-68
2022/08/30 02:30:53;;;;;;;9.05;3.70;;;;;;;20.40;47.71;101220.59;5057508;28;20060;-68
2022/08/30 02:33:20;;;;;;;16.35;3.83;;;;;;;20.57;47.45;101213.75;5040544;28;20041;-65
2022/08/30 02:35:47;;;;;;;7.07;3.53;;;;;;;20.43;47.31;101219.06;5072575;28;20060;-64
2022/08/30 02:38:15;;;;;;;10.27;3.95;;;;;;;20.17;47.40;101223.28;5057958;28;20467;-64
2022/08/30 02:40:46;;;;;;;11.52;3.50;;;;;;;20.17;47.38;101217.69;5057205;28;20056;-65
2022/08/30 02:43:13;;;;;;;9.23;3.70;;;;;;;20.19;47.49;101222.13;5040135;28;20124;-64
2022/08/30 02:45:41;;;;;;;8.45;3.70;;;;;;;20.26;47.25;101220.28;5057596;28;20052;-64
2022/08/30 02:48:08;;;;;;;7.65;3.63;;;;;;;20.29;47.03;101218.75;5040040;28;20052;-65
2022/08/30 02:50:44;;;;;;;9.20;3.58;;;;;;;20.48;46.76;101218.75;5022950;28;20057;-64
2022/08/30 02:53:11;;;;;;;8.48;3.80;;;;;;;20.56;46.61;101223.31;5039871;28;20051;-68
2022/08/30 02:55:43;;;;;;;15.90;4.70;;;;;;;20.26;50.11;101225.09;5071676;28;20057;-67
2022/08/30 02:58:10;;;;;;;14.80;3.90;;;;;;;19.83;53.82;101220.47;5057024;28;20060;-65
2022/08/30 03:00:40;;;;;;;17.58;5.15;;;;;;;19.56;53.95;101208.22;5039376;28;20045;-65
2022/08/30 03:03:08;;;;;;;11.33;4.03;;;;;;;19.44;56.14;101222.28;5057652;28;20041;-64
2022/08/30 03:05:36;;;;;;;14.75;4.75;;;;;;;19.55;55.54;101237.34;5063356;28;20058;-66
2022/08/30 03:08:06;;;;;;;10.48;4.10;;;;;;;19.91;53.86;101242.63;5057437;28;20057;-67
2022/08/30 03:10:35;;;;;;;11.63;4.38;;;;;;;19.35;56.65;101244.03;5038495;28;20057;-66
2022/08/30 03:13:04;;;;;;;16.63;4.18;;;;;;;19.28;57.88;101229.84;5057632;28;20053;-67
2022/08/30 03:15:31;;;;;;;16.95;5.65;;;;;;;19.16;60.49;101217.94;5056557;28;20049;-67
2022/08/30 03:17:58;;;;;;;12.45;5.18;;;;;;;18.86;62.21;101223.13;5072237;28;20065;-68
2022/08/30 03:20:27;;;;;;;16.33;5.00;;;;;;;18.84;62.65;101239.41;5056257;28;20061;-68
2022/08/30 03:22:54;;;;;;;11.98;5.03;;;;;;;18.96;62.87;101240.16;5027019;28;20056;-67
2022/08/30 03:25:22;;;;;;;14.48;5.05;;;;;;;18.98;63.52;101228.63;5077011;28;20088;-67
2022/08/30 03:27:49;;;;;;;14.18;5.15;;;;;;;19.09;65.02;101221.34;5041823;28;20056;-67
2022/08/30 03:30:18;;;;;;;16.23;5.53;;;;;;;18.92;65.83;101193.75;5076284;28;20056;-67
2022/08/30 03:32:46;;;;;;;13.75;5.32;;;;;;;18.78;65.67;101171.84;5041896;28;20056;-67
2022/08/30 03:35:14;;;;;;;12.27;5.00;;;;;;;18.45;66.14;101162.13;5057898;28;20052;-64
2022/08/30 03:37:42;;;;;;;12.75;5.13;;;;;;;18.38;66.44;101161.91;5056440;28;20056;-65
2022/08/30 03:40:11;;;;;;;17.40;5.65;;;;;;;18.40;67.26;101156.78;5056427;28;20049;-65
2022/08/30 03:42:40;;;;;;;10.50;4.70;;;;;;;18.37;66.53;101151.91;5056771;28;20049;-65
2022/08/30 03:45:11;;;;;;;15.98;5.47;;;;;;;18.14;67.72;101154.44;5039694;28;20044;-66
2022/08/30 03:47:38;;;;;;;12.80;4.78;;;;;;;18.31;67.46;101161.69;5056011;28;20099;-66
2022/08/30 03:50:09;;;;;;;9.60;4.28;;;;;;;18.37;67.42;101152.75;5056547;28;20056;-65
2022/08/30 03:52:36;;;;;;;10.80;4.80;;;;;;;18.52;66.03;101156.75;5076173;28;20053;-68
2022/08/30 03:55:04;;;;;;;14.00;4.55;;;;;;;18.87;65.11;101154.94;5076337;28;20045;-67
2022/08/30 03:57:32;;;;;;;16.05;4.88;;;;;;;19.37;63.45;101157.06;5058287;28;20055;-68
2022/08/30 04:00:03;;;;;;;13.55;4.75;;;;;;;19.44;63.20;101154.44;5042103;28;20056;-67
2022/08/30 04:02:37;;;;;;;10.82;4.40;;;;;;;19.11;62.50;101142.81;5043646;28;20049;-68
2022/08/30 04:05:06;;;;;;;15.05;4.75;;;;;;;19.05;63.79;101147.84;5070093;28;20055;-68
2022/08/30 04:07:33;;;;;;;9.45;4.32;;;;;;;19.01;63.50;101144.97;5037748;28;20053;-68
2022/08/30 04:10:02;;;;;;;10.60;4.80;;;;;;;18.86;63.87;101147.75;5056163;28;20060;-68
2022/08/30 04:12:30;;;;;;;12.98;5.20;;;;;;;18.74;63.97;101150.63;5037858;28;20496;-68
2022/08/30 04:14:57;;;;;;;12.68;4.88;;;;;;;18.76;63.83;101154.66;5056277;28;20056;-68
2022/08/30 04:17:25;;;;;;;12.57;5.60;;;;;;;18.99;64.04;101157.66;5055867;28;20064;-68
2022/08/30 04:19:52;;;;;;;11.52;4.85;;;;;;;18.76;63.96;101149.06;5056258;28;20052;-67
2022/08/30 04:22:20;;;;;;;11.82;4.72;;;;;;;18.51;64.44;101144.81;5055601;28;20056;-67
2022/08/30 04:24:48;;;;;;;10.10;4.50;;;;;;;18.80;64.63;101151.97;5021163;28;20401;-68
2022/08/30 04:27:19;;;;;;;9.70;4.50;;;;;;;19.02;63.94;101143.78;5036612;28;20052;-68
2022/08/30 04:29:46;;;;;;;13.02;4.63;;;;;;;19.05;63.31;101148.66;5038610;28;20136;-67
2022/08/30 04:32:15;;;;;;;10.43;5.20;;;;;;;19.17;62.68;101144.97;5037290;28;20056;-68
2022/08/30 04:34:42;;;;;;;12.57;4.53;;;;;;;19.15;61.93;101149.28;5055681;28;20488;-68
2022/08/30 04:37:10;;;;;;;10.68;4.90;;;;;;;19.16;62.28;101140.53;5055031;28;20487;-68
2022/08/30 04:39:38;;;;;;;11.68;4.57;;;;;;;19.30;61.67;101138.13;5021465;28;20123;-68
2022/08/30 04:42:05;;;;;;;9.70;4.70;;;;;;;18.88;62.36;101146.19;5036484;28;20057;-68
2022/08/30 04:44:33;;;;;;;11.13;5.25;;;;;;;18.86;62.95;101153.31;5021572;28;20060;-68
2022/08/30 04:47:01;;;;;;;10.45;4.40;;;;;;;18.83;62.05;101154.84;5055443;28;20059;-69
2022/08/30 04:49:31;;;;;;;16.92;5.10;;;;;;;18.90;62.48;101152.25;5037543;28;20493;-68
2022/08/30 04:51:58;;;;;;;12.68;4.68;;;;;;;18.75;62.69;101153.03;5054862;28;20528;-68
2022/08/30 04:54:25;;;;;;;12.70;5.10;;;;;;;18.85;62.17;101154.47;5055086;28;20041;-67
2022/08/30 04:56:53;;;;;;;9.80;4.43;;;;;;;18.68;62.68;101149.25;5054664;28;20057;-68
2022/08/30 04:59:20;;;;;;;13.07;5.30;;;;;;;18.78;61.99;101149.53;5037600;28;20052;-68
2022/08/30 05:01:48;;;;;;;10.05;4.85;;;;;;;18.76;62.08;101156.63;5054673;28;20049;-68
2022/08/30 05:04:15;;;;;;;12.85;5.07;;;;;;;18.76;61.91;101151.84;5046612;28;20612;-67
2022/08/30 05:06:43;;;;;;;16.67;5.22;;;;;;;18.96;61.53;101138.84;5069629;28;20060;-68
2022/08/30 05:09:10;;;;;;;15.52;4.45;;;;;;;18.61;61.37;101143.47;5055084;28;20061;-68
2022/08/30 05:11:38;;;;;;;13.48;5.72;;;;;;;18.61;62.01;101157.41;5054442;28;20059;-65
2022/08/30 05:14:06;;;;;;;12.40;4.50;;;;;;;18.58;61.49;101156.16;5055091;28;20045;-66
2022/08/30 05:16:34;;;;;;;8.80;4.80;;;;;;;18.69;61.08;101167.63;5036927;28;20045;-66
2022/08/30 05:19:01;;;;;;;12.95;4.88;;;;;;;18.97;61.08;101163.59;5037208;28;20049;-65
2022/08/30 05:21:29;;;;;;;10.77;4.78;;;;;;;18.94;60.66;101167.13;5036267;28;20056;-65
2022/08/30 05:23:58;;;;;;;14.73;5.03;;;;;;;18.87;60.31;101175.28;5067478;28;20052;-65
2022/08/30 05:26:29;;;;;;;10.77;5.15;;;;;;;18.50;61.35;101170.25;5074519;28;20052;-64
2022/08/30 05:28:56;;;;;;;;;;;;;;;18.81;61.42;101184.31;5074927;28;20052;-65
2022/08/30 05:31:29;;;;;;;11.57;5.15;;;;;;;19.02;60.31;101180.06;5074146;28;19920;-64
2022/08/30 05:33:58;;;;;;;16.25;6.00;;;;;;;18.59;61.37;101182.06;5056961;28;20523;-65
2022/08/30 05:36:29;;;;;;;13.48;5.60;;;;;;;18.27;60.85;101186.69;5073717;28;20052;-65
2022/08/30 05:38:56;;;;;;;16.40;5.10;;;;;;;18.60;60.85;101192.06;5040454;28;20057;-64
2022/08/30 05:41:24;;;;;;;13.98;5.03;;;;;;;18.59;60.39;101199.63;5056259;28;20053;-64
2022/08/30 05:43:54;;;;;;;10.23;4.82;;;;;;;18.74;60.21;101189.69;5040936;28;20055;-64
2022/08/30 05:46:21;;;;;;;13.13;5.13;;;;;;;18.97;59.25;101190.69;5036027;28;20060;-66
2022/08/30 05:48:50;;;;;;;14.05;5.50;;;;;;;18.88;60.00;101188.06;5054915;28;20064;-66
2022/08/30 05:51:22;;;;;;;10.65;5.15;;;;;;;18.97;59.92;101194.31;5036030;28;20049;-65
2022/08/30 05:53:52;;;;;;;13.82;4.90;;;;;;;18.96;58.60;101197.47;5036679;28;20056;-65
2022/08/30 05:56:22;;;;;;;20.63;5.57;;;;;;;19.06;58.75;101197.75;5035614;28;20057;-66
2022/08/30 05:58:52;;;;;;;17.75;4.60;;;;;;;18.98;58.44;101197.91;5036081;28;20060;-65
2022/08/30 06:01:23;;;;;;;;;;;;;;;18.92;58.20;101188.16;5054495;28;20053;-66
2022/08/30 06:03:52;;;;;;;12.10;4.75;;;;;;;19.13;58.42;101194.31;5038840;28;19995;-65
2022/08/30 06:06:20;;;;;;;11.93;4.78;;;;;;;19.18;58.58;101190.47;5039719;28;20056;-66
2022/08/30 06:08:48;;;;;;;13.98;5.15;;;;;;;19.02;58.71;101194.03;5016932;28;20072;-65
2022/08/30 06:11:18;;;;;;;13.63;5.10;;;;;;;19.20;58.45;101188.91;5032404;28;20065;-66
2022/08/30 06:13:46;;;;;;;20.38;5.10;;;;;;;19.28;57.82;101184.34;5034214;28;20064;-65
2022/08/30 06:16:16;;;;;;;15.50;6.22;;;;;;;19.39;58.12;101186.25;5041241;28;20049;-66
2022/08/30 06:18:44;;;;;;;;;;;;;;;19.44;57.61;101179.59;5054816;28;20049;-66
2022/08/30 06:21:21;;;;;;;17.23;6.07;;;;;;;19.02;59.41;101184.88;5053262;28;19930;-66
2022/08/30 06:23:48;;;;;;;15.02;5.97;;;;;;;18.96;59.13;101189.91;5040995;28;20059;-65
2022/08/30 06:26:15;;;;;;;10.63;5.70;;;;;;;19.01;59.29;101186.84;5033496;28;20396;-64
2022/08/30 06:28:43;;;;;;;14.35;5.55;;;;;;;19.26;58.17;101183.88;5034240;28;20057;-65
2022/08/30 06:31:13;;;;;;;14.30;5.70;;;;;;;19.31;57.51;101195.63;5041203;28;20060;-66
2022/08/30 06:33:41;;;;;;;12.13;5.57;;;;;;;19.15;58.16;101194.78;5054324;28;20408;-65
2022/08/30 06:36:11;;;;;;;13.70;5.70;;;;;;;19.41;57.47;101202.66;5045667;28;20042;-66
2022/08/30 06:38:38;;;;;;;;;;;;;;;19.56;57.94;101205.44;5034373;28;20053;-64
2022/08/30 06:41:07;;;;;;;13.15;5.03;;;;;;;19.45;56.22;101200.75;5031718;28;19944;-66
2022/08/30 06:43:34;;;;;;;15.13;5.80;;;;;;;19.30;57.72;101207.97;5034189;28;20114;-65
2022/08/30 06:46:04;;;;;;;14.80;5.28;;;;;;;19.17;57.55;101191.63;5031785;28;20357;-66
2022/08/30 06:48:31;;;;;;;17.38;5.63;;;;;;;18.61;59.23;101207.63;5032549;28;20053;-66
2022/08/30 06:50:58;;;;;;;13.38;5.93;;;;;;;18.42;59.50;101207.47;5036174;28;20053;-65
2022/08/30 06:53:28;;;;;;;14.15;5.60;;;;;;;18.89;58.82;101203.66;5037150;28;20058;-66
2022/08/30 06:56:04;;;;;;;19.33;6.38;;;;;;;18.83;58.51;101205.09;5035939;28;20057;-65
2022/08/30 06:58:32;;;;;;;27.65;7.40;;;;;;;18.87;57.84;101208.78;5037713;28;20050;-67
2022/08/30 07:00:59;;;;;;;24.05;6.07;;;;;;;18.99;57.34;101208.72;5019243;28;20057;-66
2022/08/30 07:03:27;;;;;;;17.92;6.15;;;;;;;19.22;57.32;101208.94;5037331;28;20056;-66
2022/08/30 07:05:55;;;;;;;21.42;6.47;;;;;;;19.15;57.02;101208.75;5059439;28;20046;-66
2022/08/30 07:08:23;;;;;;;16.63;5.47;;;;;;;19.38;56.60;101209.78;5045646;28;20059;-66
2022/08/30 07:10:53;;;;;;;19.60;5.05;;;;;;;19.47;56.40;101213.22;5039558;28;20668;-66
2022/08/30 07:13:22;;;;;;;13.02;5.30;;;;;;;19.77;55.20;101219.13;5057127;28;20044;-66
2022/08/30 07:15:51;;;;;;;12.13;5.15;;;;;;;19.77;54.97;101211.53;5039053;28;20053;-65
2022/08/30 07:21:10;;;;;;;18.23;6.40;;;;;;;19.86;54.95;101217.75;5061470;28;20047;-65
2022/08/30 07:23:37;;;;;;;13.00;5.20;;;;;;;19.73;55.38;101218.22;5066447;28;20049;-67
2022/08/30 07:26:07;;;;;;;15.23;5.18;;;;;;;19.84;54.53;101220.09;5056561;28;20056;-65
2022/08/30 07:28:40;;;;;;;20.83;6.63;;;;;;;19.90;55.11;101217.84;5022295;28;20106;-66
2022/08/30 07:31:08;;;;;;;26.17;6.70;;;;;;;19.96;54.67;101219.19;5056719;28;20053;-66
2022/08/30 07:33:36;;;;;;;21.63;6.38;;;;;;;19.94;54.69;101211.16;5056919;28;20060;-66
2022/08/30 07:36:05;;;;;;;15.05;6.18;;;;;;;19.87;54.54;101222.19;5038449;28;20057;-67
2022/08/30 07:38:32;;;;;;;15.60;5.97;;;;;;;19.78;55.09;101224.34;5055363;28;20063;-65
2022/08/30 07:41:00;;;;;;;15.98;6.70;;;;;;;19.72;55.92;101214.63;5056312;28;20060;-66
2022/08/30 07:43:28;;;;;;;18.58;6.43;;;;;;;19.72;55.99;101205.41;5056812;28;20045;-67
2022/08/30 07:46:03;;;;;;;14.88;6.53;;;;;;;19.88;55.86;101214.59;5056334;28;20045;-65
2022/08/30 07:48:30;;;;;;;17.05;6.93;;;;;;;19.88;54.91;101209.00;5021807;28;20431;-68
2022/08/30 07:51:00;;;;;;;18.42;7.18;;;;;;;19.95;54.78;101218.38;5039170;28;20060;-67
2022/08/30 07:53:31;;;;;;;17.63;6.75;;;;;;;20.28;54.78;101212.34;5056483;28;20053;-65
2022/08/30 07:55:59;;;;;;;19.30;7.47;;;;;;;20.13;54.15;101216.78;5038019;28;20060;-67
2022/08/30 07:58:30;;;;;;;13.38;6.75;;;;;;;20.24;54.78;101219.84;5039659;28;20057;-66
2022/08/30 08:01:00;;;;;;;20.70;6.30;;;;;;;20.25;54.59;101221.47;5054461;28;20056;-65
2022/08/30 08:03:28;;;;;;;16.95;6.57;;;;;;;20.27;54.30;101227.50;5022085;28;20298;-65
2022/08/30 08:05:56;;;;;;;17.02;6.60;;;;;;;20.29;54.35;101221.56;5061135;28;20542;-66
2022/08/30 08:08:24;;;;;;;19.50;7.05;;;;;;;20.32;54.45;101226.41;5020883;28;20619;-65
2022/08/30 08:10:52;;;;;;;14.60;7.10;;;;;;;20.15;54.56;101224.81;5060738;28;20067;-66
2022/08/30 08:13:19;;;;;;;17.70;6.65;;;;;;;20.32;54.68;101229.19;5057909;28;20053;-65
2022/08/30 08:15:47;;;;;;;18.45;6.95;;;;;;;20.41;54.20;101224.22;5057925;28;20503;-65
2022/08/30 08:18:14;;;;;;;20.88;7.13;;;;;;;20.39;53.83;101227.38;5057557;28;20520;-65
2022/08/30 08:20:42;;;;;;;16.77;6.90;;;;;;;20.47;53.64;101231.94;5075393;28;20095;-65
2022/08/30 08:23:09;;;;;;;21.33;7.55;;;;;;;20.73;53.63;101239.69;5067983;28;20064;-66
2022/08/30 08:25:38;;;;;;;15.90;6.13;;;;;;;20.61;53.58;101237.84;5037807;28;20049;-65
2022/08/30 08:28:06;;;;;;;16.27;7.50;;;;;;;20.66;53.75;101247.94;5056036;28;20064;-65
2022/08/30 08:30:35;;;;;;;13.45;6.45;;;;;;;20.73;53.97;101250.88;5037373;28;20048;-66
2022/08/30 08:33:04;;;;;;;16.58;6.47;;;;;;;20.42;54.92;101254.63;5055646;28;20053;-66
2022/08/30 08:35:32;;;;;;;18.42;7.13;;;;;;;20.33;54.25;101254.00;5055408;28;20064;-69
2022/08/30 08:37:59;;;;;;;14.30;7.57;;;;;;;20.37;54.77;101254.09;5037228;28;20061;-69
2022/08/30 08:40:28;;;;;;;13.18;6.40;;;;;;;20.66;54.00;101254.34;5036906;28;20053;-69
2022/08/30 08:43:01;;;;;;;17.40;6.43;;;;;;;20.81;53.02;101259.06;5021088;28;20412;-69
2022/08/30 08:45:34;;;;;;;13.80;6.25;;;;;;;20.96;53.02;101248.94;5037262;28;20056;-69
2022/08/30 08:48:21;;;;;;;17.00;6.10;;;;;;;21.00;52.63;101253.47;5055524;28;20059;-69
2022/08/30 08:53:35;;;;;;;21.83;6.88;;;;;;;21.11;52.54;101267.69;5055139;28;20055;-66
2022/08/30 08:56:15;;;;;;;20.17;6.43;;;;;;;20.82;53.40;101259.84;5039101;28;20538;-65
2022/08/30 08:58:47;;;;;;;;;;;;;;;20.82;53.69;101260.66;5037876;28;20049;-65
2022/08/30 09:01:17;;;;;;;22.25;7.07;;;;;;;20.83;53.45;101259.50;5054371;28;19925;-65
2022/08/30 09:03:46;;;;;;;21.75;7.35;;;;;;;20.97;53.72;101267.38;5055262;28;20436;-66
2022/08/30 09:06:50;;;;;;;15.70;7.00;;;;;;;20.93;53.50;101281.31;5042074;28;20523;-66
2022/08/30 09:09:21;;;;;;;110.35;11.80;;;;;;;21.65;52.15;101278.69;5054574;28;20058;-66
2022/08/30 09:11:48;;;;;;;76.05;10.10;;;;;;;22.07;51.13;101277.41;5037118;28;20053;-66
2022/08/30 09:14:19;;;;;;;28.10;7.10;;;;;;;22.30;50.38;101269.72;5037137;28;20060;-66
2022/08/30 09:17:08;;;;;;;17.08;6.63;;;;;;;22.41;49.36;101264.28;5054521;28;20496;-66
2022/08/30 09:20:06;;;;;;;16.45;6.97;;;;;;;22.62;49.01;101260.97;5036319;28;20405;-66
2022/08/30 09:22:36;;;;;;;22.40;8.02;;;;;;;22.88;48.24;101267.31;5045508;28;20091;-65
2022/08/30 09:25:15;;;;;;;22.65;6.80;;;;;;;22.54;48.58;101276.94;5054973;28;20060;-65
2022/08/30 09:27:45;;;;;;;20.80;6.10;;;;;;;22.48;49.55;101271.97;5037096;28;20049;-66
2022/08/30 09:30:20;;;;;;;23.10;7.25;;;;;;;22.23;50.21;101271.63;5054689;28;20060;-65
2022/08/30 09:32:59;;;;;;;15.68;6.35;;;;;;;22.67;49.15;101274.66;5054818;28;20059;-66
2022/08/30 09:35:42;;;;;;;17.25;6.70;;;;;;;22.31;49.53;101274.19;5054539;28;20056;-68
2022/08/30 09:38:11;;;;;;;17.60;5.75;;;;;;;22.13;50.49;101275.91;5036750;28;20107;-68
2022/08/30 09:41:01;;;;;;;25.47;11.57;;;;;;;22.57;49.34;101269.72;5025976;28;20048;-69
2022/08/30 09:43:31;;;;;;;17.77;6.75;;;;;;;22.88;48.79;101274.94;5036922;28;20299;-68
2022/08/30 09:46:01;;;;;;;18.63;6.65;;;;;;;22.95;48.37;101272.22;5054092;28;20053;-69
2022/08/30 09:48:36;;;;;;;16.05;5.65;;;;;;;23.17;47.63;101280.50;5035510;28;20052;-68
2022/08/30 09:51:09;;;;;;;16.60;6.32;;;;;;;22.89;47.57;101285.78;5053006;28;20053;-69
2022/08/30 09:53:37;;;;;;;17.95;6.00;;;;;;;23.05;48.06;101280.75;5036155;28;20084;-68
2022/08/30 09:56:32;;;;;;;19.38;6.63;;;;;;;23.38;47.33;101280.75;5054436;28;20060;-65
2022/08/30 09:59:25;;;;;;;15.40;6.90;;;;;;;22.63;48.62;101279.44;5054276;28;20053;-69
2022/08/30 10:02:04;;;;;;;21.48;6.30;;;;;;;22.84;48.71;101288.16;5036288;28;20056;-68
2022/08/30 10:04:50;;;;;;;12.93;5.53;;;;;;;23.25;48.05;101292.63;5049986;28;20048;-66
2022/08/30 10:07:36;;;;;;;26.05;7.43;;;;;;;23.64;46.83;101279.78;5058560;28;20558;-70
2022/08/30 10:10:21;;;;;;;17.98;6.07;;;;;;;23.62;46.58;101279.41;5014544;28;20535;-70
2022/08/30 10:13:09;;;;;;;16.25;7.20;;;;;;;23.56;46.48;101288.56;5014884;28;20157;-69
2022/08/30 10:15:49;;;;;;;19.48;6.45;;;;;;;23.17;47.54;101280.50;5000075;28;20041;-71
2022/08/30 10:18:31;;;;;;;26.17;15.03;;;;;;;23.05;47.11;101274.31;5017455;28;20049;-68
2022/08/30 10:21:26;;;;;;;20.52;7.75;;;;;;;23.35;47.80;101287.16;4999441;28;20049;-68
2022/08/30 10:24:03;;;;;;;17.27;6.82;;;;;;;23.18;47.30;101284.94;5021311;28;20058;-69
2022/08/30 10:26:53;;;;;;;14.15;6.35;;;;;;;23.35;47.48;101284.34;5017970;28;20056;-68
2022/08/30 10:29:23;;;;;;;;;;;;;;;23.66;47.26;101280.22;5000837;28;20064;-65
2022/08/30 10:31:52;;;;;;;;;;;;;;;23.94;46.19;101279.63;5018570;28;20340;-66
2022/08/30 10:34:30;;;;;;;17.08;7.32;;;;;;;23.64;46.75;101282.59;5016974;28;19925;-66
2022/08/30 10:37:06;;;;;;;19.50;7.25;;;;;;;23.48;47.33;101286.88;5016828;28;20050;-66
2022/08/30 10:39:45;;;;;;;15.32;6.53;;;;;;;23.63;47.20;101285.81;5016261;28;20069;-67
2022/08/30 10:42:20;;;;;;;18.98;7.57;;;;;;;23.82;46.85;101286.38;5013250;28;20485;-67
2022/08/30 10:45:12;;;;;;;12.60;6.85;;;;;;;23.51;47.36;101286.91;5016662;28;20417;-65
2022/08/30 10:47:48;;;;;;;20.83;7.43;;;;;;;23.01;48.54;101285.53;5025476;28;20061;-66
2022/08/30 10:50:30;;;;;;;19.05;7.20;;;;;;;23.18;48.89;101289.75;5017586;28;20054;-65
2022/08/30 10:53:05;;;;;;;17.88;9.38;;;;;;;23.65;47.79;101284.22;5016390;28;20057;-66
2022/08/30 10:55:35;;;;;;;22.33;8.98;;;;;;;24.06;46.44;101290.66;5020625;28;20057;-66
2022/08/30 10:58:04;;;;;;;20.33;9.75;;;;;;;24.00;46.71;101284.56;5020490;28;20048;-66
2022/08/30 11:01:15;;;;;;;16.40;7.00;;;;;;;23.94;46.97;101291.72;5037550;28;20045;-69
2022/08/30 11:04:09;;;;;;;19.25;7.10;;;;;;;24.28;46.02;101279.13;5023676;28;20049;-67
2022/08/30 11:07:08;;;;;;;16.52;6.28;;;;;;;23.60;47.20;101292.22;5017197;28;20041;-66
2022/08/30 11:09:39;;;;;;;16.08;6.53;;;;;;;23.69;47.43;101279.47;5053806;28;20048;-68
2022/08/30 11:12:20;;;;;;;15.90;6.25;;;;;;;24.02;46.56;101293.44;5057078;28;20049;-69
2022/08/30 11:14:48;;;;;;;17.48;7.10;;;;;;;24.17;46.33;101294.31;5022876;28;20489;-69
2022/08/30 11:17:44;;;;;;;20.20;8.20;;;;;;;23.69;47.28;101287.91;5057170;28;20045;-68
2022/08/30 11:20:48;;;;;;;15.20;6.82;;;;;;;23.38;47.74;101283.56;5022922;28;20045;-68
2022/08/30 11:23:34;;;;;;;17.55;7.30;;;;;;;23.49;47.83;101292.13;5039484;28;20527;-69
2022/08/30 11:26:09;;;;;;;16.27;6.40;;;;;;;23.74;47.47;101278.28;5063822;28;20049;-69
2022/08/30 11:28:47;;;;;;;16.10;7.13;;;;;;;23.60;47.70;101290.22;5060133;28;20052;-69
2022/08/30 11:31:17;;;;;;;17.70;6.70;;;;;;;24.04;47.23;101287.41;5058695;28;20049;-70
2022/08/30 11:33:52;;;;;;;17.02;6.20;;;;;;;24.23;46.72;101282.28;5076927;28;20064;-68
2022/08/30 11:36:34;;;;;;;19.05;6.80;;;;;;;24.49;45.81;101279.28;5058562;28;20060;-71
2022/08/30 11:39:06;;;;;;;17.63;7.07;;;;;;;24.34;46.04;101269.09;5076789;28;20064;-68
2022/08/30 11:41:37;;;;;;;14.05;5.97;;;;;;;24.21;46.25;101267.84;5058367;28;20071;-70
2022/08/30 11:44:21;;;;;;;17.42;6.00;;;;;;;24.76;45.26;101267.75;5059900;28;20508;-69